Time;durP1;ratioP1;P1;durP2;ratioP2;P2;SDS_P1;SDS_P2;PMS_P1;PMS_P2;Temp;Humidity;BMP_temperature;BMP_pressure;BME280_temperature;BME280_humidity;BME280_pressure;Samples;Min_cycle;Max_cycle;Signal;HPM_P1;HPM_P2
2022/11/18 00:01:03;;;;;;;;;;;6.60;99.90;;;4.21;100.00;98685.94;10498440;28;20065;-78
2022/11/18 00:06:10;;;;;;;32.23;15.40;;;6.50;99.90;;;4.16;100.00;98672.47;10488702;28;19928;-78
2022/11/18 00:16:43;;;;;;;30.23;14.70;;;6.50;99.90;;;4.27;100.00;98649.28;10536308;28;20063;-78
2022/11/18 00:21:47;;;;;;;25.17;12.57;;;6.60;99.90;;;4.38;100.00;98644.66;10500965;28;20065;-78
2022/11/18 00:26:50;;;;;;;30.00;13.70;;;6.70;99.90;;;4.49;100.00;98636.44;10481125;28;20057;-78
2022/11/18 00:31:55;;;;;;;23.93;11.40;;;6.80;99.90;;;4.51;100.00;98635.28;10469157;28;20474;-79
2022/11/18 00:36:57;;;;;;;30.73;14.03;;;6.80;99.90;;;4.50;100.00;98633.66;10514951;28;20061;-79
2022/11/18 00:47:21;;;;;;;25.30;10.77;;;6.70;99.90;;;4.33;100.00;98636.47;10519312;28;20061;-79
2022/11/18 00:52:24;;;;;;;26.13;11.67;;;6.70;99.90;;;4.23;100.00;98632.19;10463529;28;20062;-78
2022/11/18 00:57:27;;;;;;;23.83;11.20;;;6.60;99.90;;;4.14;100.00;98627.09;10485148;28;20060;-78
2022/11/18 01:02:30;;;;;;;31.17;14.10;;;6.50;99.90;;;4.05;100.00;98628.09;10499615;28;20068;-78
2022/11/18 01:07:33;;;;;;;31.07;13.50;;;6.40;99.90;;;3.93;100.00;98615.28;10499981;28;20065;-78
2022/11/18 01:17:57;;;;;;;19.90;10.40;;;6.20;99.90;;;3.78;100.00;98608.19;10470201;28;20063;-78
2022/11/18 01:23:00;;;;;;;103.43;32.77;;;6.10;99.90;;;3.73;100.00;98593.78;10497993;28;20147;-77
2022/11/18 01:28:04;;;;;;;45.90;16.43;;;6.10;99.90;;;3.72;100.00;98612.34;10445776;28;20080;-77
2022/11/18 01:33:07;;;;;;;27.00;10.83;;;6.10;99.90;;;3.70;100.00;98620.34;10498708;28;20084;-78
2022/11/18 01:38:14;;;;;;;31.80;13.33;;;6.10;99.90;;;3.78;100.00;98608.19;10466148;28;20063;-79
2022/11/18 01:43:22;;;;;;;23.13;9.73;;;6.10;99.90;;;3.91;100.00;98612.00;10482731;28;20061;-79
2022/11/18 01:48:33;;;;;;;32.47;12.60;;;6.20;99.90;;;4.01;100.00;98623.16;10514396;28;20099;-79
2022/11/18 01:54:06;;;;;;;29.80;11.70;;;6.30;99.90;;;4.08;100.00;98615.47;10515283;28;20111;-79
2022/11/18 01:59:17;;;;;;;33.17;11.43;;;6.40;99.90;;;4.12;100.00;98627.28;10533582;28;20064;-78
2022/11/18 02:04:21;;;;;;;21.27;9.20;;;6.40;99.90;;;4.16;100.00;98633.03;10465727;28;20076;-78
2022/11/18 02:09:24;;;;;;;27.53;11.13;;;6.50;99.90;;;4.27;100.00;98622.19;10497693;28;20080;-78
2022/11/18 02:14:34;;;;;;;24.50;9.90;;;6.60;99.90;;;4.36;100.00;98615.91;10496771;28;20057;-78
2022/11/18 02:19:46;;;;;;;28.33;11.57;;;6.70;99.90;;;4.48;100.00;98613.75;10468912;28;20059;-78
2022/11/18 02:25:35;;;;;;;29.57;11.97;;;6.80;99.90;;;4.60;100.00;98622.13;10483901;28;20068;-78
2022/11/18 02:30:52;;;;;;;22.07;9.20;;;6.90;99.90;;;4.68;100.00;98619.44;10495431;28;20053;-78
2022/11/18 02:36:15;;;;;;;21.10;9.97;;;7.00;99.90;;;4.74;100.00;98603.03;10492412;28;20524;-78
2022/11/18 02:41:25;;;;;;;23.63;9.93;;;7.00;99.90;;;4.80;100.00;98591.81;10480150;28;20064;-78
2022/11/18 02:46:35;;;;;;;22.77;10.57;;;7.10;99.90;;;4.88;100.00;98578.59;10495363;28;20570;-78
2022/11/18 02:51:40;;;;;;;21.97;9.67;;;7.20;99.90;;;4.95;100.00;98573.47;10514477;28;20151;-78
2022/11/18 02:56:45;;;;;;;22.97;9.47;;;7.30;99.90;;;4.96;100.00;98565.41;10467848;28;20057;-78
2022/11/18 03:01:48;;;;;;;24.23;10.20;;;7.30;99.90;;;5.01;100.00;98559.63;10517314;28;20517;-78
2022/11/18 03:07:09;;;;;;;26.90;10.70;;;7.30;99.90;;;5.00;100.00;98560.63;10489292;28;20057;-78
2022/11/18 03:12:45;;;;;;;15.60;7.70;;;7.30;99.90;;;5.03;100.00;98561.09;10515032;28;20057;-78
2022/11/18 03:18:15;;;;;;;24.53;10.70;;;7.30;99.90;;;5.08;100.00;98557.94;10482778;28;20057;-78
2022/11/18 03:23:53;;;;;;;19.60;8.43;;;7.40;99.90;;;5.15;100.00;98556.25;10493961;28;20064;-78
2022/11/18 03:29:02;;;;;;;21.30;8.83;;;7.40;99.90;;;5.23;100.00;98561.50;10483800;28;20398;-78
2022/11/18 03:34:26;;;;;;;20.33;9.73;;;7.50;99.90;;;5.34;100.00;98557.66;10484078;28;20080;-78
2022/11/18 03:39:33;;;;;;;21.30;9.33;;;7.60;99.90;;;5.42;100.00;98560.22;10482936;28;20053;-78
2022/11/18 03:44:40;;;;;;;17.07;8.07;;;7.70;99.90;;;5.48;100.00;98554.25;10521228;28;20061;-78
2022/11/18 03:49:55;;;;;;;26.90;11.50;;;7.80;99.90;;;5.54;100.00;98566.72;10466973;28;20387;-78
2022/11/18 03:55:06;;;;;;;29.23;10.50;;;7.90;99.90;;;5.59;100.00;98598.63;10474122;28;20057;-78
2022/11/18 04:00:13;;;;;;;21.40;9.85;;;7.90;99.90;;;5.65;100.00;98605.03;10483366;28;20064;-78
2022/11/18 04:05:18;;;;;;;28.57;12.23;;;7.90;99.90;;;5.69;100.00;98592.31;10484441;28;20067;-78
2022/11/18 04:10:39;;;;;;;30.97;12.33;;;8.00;99.90;;;5.72;100.00;98576.97;10519534;28;20071;-78
2022/11/18 04:15:42;;;;;;;40.53;13.43;;;8.00;99.90;;;5.73;100.00;98561.97;10466022;28;20545;-78
2022/11/18 04:20:45;;;;;;;38.13;13.03;;;8.00;99.90;;;5.69;100.00;98550.94;10519606;28;20416;-79
2022/11/18 04:25:48;;;;;;;35.87;13.53;;;7.90;99.90;;;5.66;100.00;98529.41;10517343;28;20063;-78
2022/11/18 04:30:51;;;;;;;32.63;13.80;;;7.90;99.90;;;5.61;100.00;98522.03;10485431;28;20067;-78
2022/11/18 04:35:54;;;;;;;36.77;14.40;;;7.80;99.90;;;5.61;100.00;98525.50;10511417;28;20067;-79
2022/11/18 04:40:57;;;;;;;36.87;12.87;;;7.80;99.90;;;5.63;100.00;98520.84;10467228;28;20049;-79
2022/11/18 04:46:00;;;;;;;24.70;10.33;;;7.80;99.90;;;5.67;100.00;98516.06;10481870;28;20066;-79
2022/11/18 04:51:04;;;;;;;48.37;12.43;;;7.90;99.90;;;5.71;100.00;98530.53;10462013;28;20134;-78
2022/11/18 04:56:07;;;;;;;63.53;12.53;;;7.90;99.90;;;5.76;100.00;98530.00;10495551;28;20061;-79
2022/11/18 05:01:10;;;;;;;69.67;14.27;;;7.90;99.90;;;5.81;100.00;98532.91;10527645;28;20143;-79
2022/11/18 05:06:13;;;;;;;38.13;10.27;;;8.00;99.90;;;5.85;100.00;98536.84;10460401;28;20057;-79
2022/11/18 05:16:38;;;;;;;48.05;12.52;;;8.10;99.90;;;5.93;100.00;98515.69;10507348;28;20130;-78
2022/11/18 05:21:41;;;;;;;33.73;12.27;;;8.10;99.90;;;5.95;100.00;98513.72;10494812;28;20183;-78
2022/11/18 05:26:44;;;;;;;52.07;14.40;;;8.20;99.90;;;5.99;100.00;98516.78;10520618;28;20060;-78
2022/11/18 05:31:48;;;;;;;47.03;13.67;;;8.20;99.90;;;6.00;100.00;98506.09;10496358;28;20064;-78
2022/11/18 05:36:51;;;;;;;43.77;13.33;;;8.20;99.90;;;6.03;100.00;98518.91;10507181;27;20067;-79
2022/11/18 05:47:15;;;;;;;36.35;12.38;;;8.30;99.90;;;6.05;100.00;98537.16;10482761;28;20057;-79
2022/11/18 05:52:18;;;;;;;34.43;11.90;;;8.30;99.90;;;6.07;100.00;98498.28;10524076;28;20147;-79
2022/11/18 05:57:21;;;;;;;47.73;12.03;;;8.30;99.90;;;6.08;100.00;98503.34;10478373;28;20144;-78
2022/11/18 06:02:24;;;;;;;43.80;12.50;;;8.30;99.90;;;6.11;100.00;98510.06;10499005;28;20069;-78
2022/11/18 06:07:47;;;;;;;51.40;11.57;;;8.30;99.90;;;6.12;100.00;98509.91;10487066;28;20115;-78
2022/11/18 06:12:54;;;;;;;69.00;18.27;;;8.40;99.90;;;6.16;100.00;98508.53;10500134;28;20057;-79
2022/11/18 06:18:30;;;;;;;44.77;14.17;;;8.40;99.90;;;6.17;100.00;98501.44;10481336;28;20413;-79
2022/11/18 06:23:40;;;;;;;41.27;12.83;;;8.40;99.90;;;6.20;100.00;98509.00;10477278;28;20096;-79
2022/11/18 06:28:47;;;;;;;57.93;13.73;;;8.50;99.90;;;6.20;100.00;98526.66;10491825;28;20083;-79
2022/11/18 06:33:50;;;;;;;48.93;15.00;;;8.40;99.90;;;6.23;100.00;98521.00;10510961;28;20060;-79
2022/11/18 06:38:54;;;;;;;53.87;15.27;;;8.50;99.90;;;6.23;100.00;98513.91;10485229;28;20449;-79
2022/11/18 06:43:57;;;;;;;93.77;16.67;;;8.50;99.90;;;6.25;100.00;98514.56;10453979;28;20057;-79
2022/11/18 06:49:01;;;;;;;88.57;16.60;;;8.50;99.90;;;6.28;100.00;98513.38;10497556;28;20049;-78
2022/11/18 06:54:04;;;;;;;56.10;14.33;;;8.50;99.90;;;6.29;100.00;98515.00;10524236;28;20065;-78
2022/11/18 06:59:13;;;;;;;45.97;11.93;;;8.50;99.90;;;6.31;100.00;98507.75;10497683;28;20115;-78
2022/11/18 07:04:16;;;;;;;70.50;14.37;;;8.50;99.90;;;6.33;100.00;98518.94;10510992;28;20068;-77
2022/11/18 07:09:19;;;;;;;81.27;15.67;;;8.50;99.90;;;6.35;100.00;98527.47;10522825;28;20057;-76
2022/11/18 07:14:22;;;;;;;88.13;15.13;;;8.60;99.90;;;6.37;100.00;98525.50;10501813;28;20061;-77
2022/11/18 07:19:25;;;;;;;51.17;12.63;;;8.60;99.90;;;6.39;100.00;98526.13;10485800;28;20061;-77
2022/11/18 07:24:36;;;;;;;39.67;11.30;;;8.50;99.90;;;6.40;100.00;98525.09;10521912;28;20144;-77
2022/11/18 07:29:39;;;;;;;75.27;13.07;;;8.60;99.90;;;6.42;100.00;98515.22;10503264;28;20412;-77
2022/11/18 07:34:43;;;;;;;54.50;13.23;;;8.60;99.90;;;6.43;100.00;98495.75;10487140;28;20061;-77
2022/11/18 07:39:46;;;;;;;41.97;12.30;;;8.60;99.90;;;6.47;100.00;98485.63;10466073;28;20065;-85
2022/11/18 07:44:49;;;;;;;31.77;12.03;;;8.60;99.90;;;6.48;100.00;98471.41;10494825;28;20115;-85
2022/11/18 07:49:52;;;;;;;32.47;11.53;;;8.70;99.90;;;6.51;100.00;98469.25;10501188;28;20146;-86
2022/11/18 07:54:56;;;;;;;89.30;13.37;;;8.70;99.90;;;6.55;100.00;98482.91;10510110;28;20152;-86
2022/11/18 07:59:59;;;;;;;48.90;12.40;;;8.70;99.90;;;6.59;100.00;98468.31;10479204;28;20057;-83
2022/11/18 08:05:02;;;;;;;39.53;13.33;;;8.80;99.90;;;6.60;100.00;98443.59;10466654;28;20057;-83
2022/11/18 08:10:06;;;;;;;41.60;12.50;;;8.80;99.90;;;6.60;100.00;98448.84;10487189;28;20057;-83
2022/11/18 08:15:09;;;;;;;42.93;13.63;;;8.80;99.90;;;6.61;100.00;98440.75;10474421;28;20053;-83
2022/11/18 08:20:13;;;;;;;34.80;12.60;;;8.80;99.90;;;6.62;100.00;98462.69;10454169;28;20061;-84
2022/11/18 08:25:16;;;;;;;38.87;11.80;;;8.80;99.90;;;6.65;100.00;98478.13;10494168;28;20579;-84
2022/11/18 08:30:20;;;;;;;32.93;12.63;;;8.80;99.90;;;6.64;100.00;98463.31;10489870;28;20060;-85
2022/11/18 08:35:24;;;;;;;37.90;13.37;;;8.90;99.90;;;6.64;100.00;98460.66;10496359;28;20057;-85
2022/11/18 08:40:27;;;;;;;42.57;14.23;;;8.90;99.90;;;6.65;100.00;98457.00;10501615;28;20448;-84
2022/11/18 08:45:30;;;;;;;33.20;13.27;;;8.90;99.90;;;6.66;100.00;98456.84;10478367;28;20515;-84
2022/11/18 08:50:33;;;;;;;29.87;12.17;;;8.90;99.90;;;6.65;100.00;98459.66;10494328;28;20084;-86
2022/11/18 08:55:36;;;;;;;33.07;14.23;;;8.90;99.90;;;6.62;100.00;98447.66;10460835;28;20489;-89
2022/11/18 09:00:39;;;;;;;29.53;12.60;;;8.90;99.90;;;6.58;100.00;98450.84;10463719;28;20113;-87
2022/11/18 09:05:43;;;;;;;26.80;13.27;;;8.80;99.90;;;6.61;100.00;98446.03;10482044;28;20060;-79
2022/11/18 09:10:46;;;;;;;30.67;14.50;;;8.80;99.90;;;6.57;100.00;98444.75;10491588;28;20087;-78
2022/11/18 09:15:49;;;;;;;28.30;11.87;;;8.80;99.90;;;6.58;100.00;98449.03;10482033;28;20084;-79
2022/11/18 09:20:57;;;;;;;34.07;12.20;;;8.80;99.90;;;6.55;100.00;98441.50;10492983;28;20067;-79
2022/11/18 09:26:05;;;;;;;29.17;13.20;;;8.80;99.90;;;6.53;100.00;98432.91;10482123;28;20140;-79
2022/11/18 09:31:13;;;;;;;32.27;13.63;;;8.80;99.90;;;6.53;100.00;98424.19;10514717;28;20065;-79
2022/11/18 09:36:22;;;;;;;32.30;13.97;;;8.70;99.90;;;6.51;100.00;98428.84;10532591;28;20056;-79
2022/11/18 09:41:49;;;;;;;24.80;11.87;;;8.70;99.90;;;6.51;100.00;98426.19;10467508;28;20066;-79
2022/11/18 09:47:32;;;;;;;27.90;12.53;;;8.70;99.90;;;6.52;100.00;98426.00;10483674;28;20057;-79
2022/11/18 09:52:39;;;;;;;26.13;12.60;;;8.70;99.90;;;6.52;100.00;98431.28;10459753;28;20076;-79
2022/11/18 09:57:52;;;;;;;23.23;11.77;;;8.70;99.90;;;6.51;100.00;98403.28;10483774;28;20049;-79
2022/11/18 10:03:12;;;;;;;35.30;15.90;;;8.70;99.90;;;6.48;100.00;98394.88;10499995;28;20068;-79
2022/11/18 10:08:30;;;;;;;28.17;13.73;;;8.70;99.90;;;6.47;100.00;98380.06;10467357;28;20072;-79
2022/11/18 10:13:45;;;;;;;38.90;19.27;;;8.60;99.90;;;6.42;100.00;98378.00;10500709;28;20053;-80
2022/11/18 10:19:00;;;;;;;72.30;38.63;;;8.60;99.90;;;6.39;100.00;98368.63;10501690;28;20172;-80
2022/11/18 10:24:20;;;;;;;66.50;33.40;;;8.60;99.90;;;6.43;100.00;98361.16;10487274;28;20382;-79
2022/11/18 10:29:24;;;;;;;38.40;15.97;;;8.60;99.90;;;6.42;100.00;98356.91;10488976;28;20505;-79
2022/11/18 10:34:28;;;;;;;27.70;14.53;;;8.60;99.90;;;6.47;100.00;98362.41;10504816;28;20056;-79
2022/11/18 10:39:32;;;;;;;32.60;15.07;;;8.60;99.90;;;6.43;100.00;98354.06;10507044;28;20057;-80
2022/11/18 10:44:37;;;;;;;32.60;15.07;;;8.60;99.90;;;6.40;100.00;98358.88;10465227;28;20092;-80
2022/11/18 10:49:40;;;;;;;44.17;22.43;;;8.60;99.90;;;6.39;100.00;98363.34;10453405;28;20567;-80
2022/11/18 10:54:43;;;;;;;23.70;13.07;;;8.60;99.90;;;6.39;100.00;98365.19;10528118;28;20083;-80
2022/11/18 10:59:50;;;;;;;30.07;13.63;;;8.60;99.90;;;6.36;100.00;98361.09;10456160;28;20472;-79
2022/11/18 11:04:53;;;;;;;34.57;15.20;;;8.50;99.90;;;6.36;100.00;98368.19;10480552;28;20479;-79
2022/11/18 11:10:11;;;;;;;37.00;16.23;;;8.50;99.90;;;6.33;100.00;98363.28;10487146;28;20070;-79
2022/11/18 11:15:27;;;;;;;28.67;13.73;;;8.50;99.90;;;6.29;100.00;98364.63;10469582;28;20100;-91
2022/11/18 11:20:30;;;;;;;29.23;13.03;;;8.40;99.90;;;6.22;100.00;98369.03;10522393;28;20429;-80
2022/11/18 11:25:55;;;;;;;26.37;12.23;;;8.40;99.90;;;6.17;100.00;98370.38;10512676;28;20065;-80
2022/11/18 11:31:30;;;;;;;23.57;11.70;;;8.30;99.90;;;6.16;100.00;98357.41;10487359;28;20076;-80
2022/11/18 11:37:16;;;;;;;30.63;12.50;;;8.30;99.90;;;6.16;100.00;98370.59;10506760;28;20057;-80
2022/11/18 11:42:41;;;;;;;35.10;13.33;;;8.30;99.90;;;6.11;100.00;98370.31;10499349;28;20123;-80
2022/11/18 11:48:02;;;;;;;29.23;12.77;;;8.20;99.90;;;6.07;100.00;98374.34;10512472;28;20057;-80
2022/11/18 11:53:31;;;;;;;26.13;11.23;;;8.20;99.90;;;6.04;100.00;98372.88;10488970;28;20060;-80
2022/11/18 11:59:00;;;;;;;25.60;11.27;;;8.20;99.90;;;6.08;100.00;98362.78;10465194;28;20504;-81
2022/11/18 12:04:42;;;;;;;22.90;9.53;;;8.20;99.90;;;6.07;100.00;98348.78;10437693;28;1134382;-80
2022/11/18 12:09:56;;;;;;;16.13;9.57;;;8.20;99.90;;;6.05;100.00;98348.13;10484557;28;20277;-80
2022/11/18 12:15:24;;;;;;;34.77;16.47;;;8.30;99.90;;;6.02;100.00;98350.31;10470524;28;20112;-80
2022/11/18 12:20:36;;;;;;;26.67;12.47;;;8.20;99.90;;;6.04;100.00;98353.59;10506329;28;20056;-80
2022/11/18 12:25:52;;;;;;;22.85;9.98;;;8.20;99.90;;;6.03;100.00;98357.22;10515957;28;20061;-80
2022/11/18 12:31:14;;;;;;;24.40;11.00;;;8.20;99.90;;;6.02;100.00;98351.16;10498406;28;20052;-80
2022/11/18 12:36:44;;;;;;;32.00;16.07;;;8.20;99.90;;;5.98;100.00;98323.50;10463746;28;20061;-80
2022/11/18 12:47:36;;;;;;;26.67;11.60;;;8.10;99.90;;;5.93;100.00;98330.31;10485100;28;20065;-80
2022/11/18 12:52:39;;;;;;;21.83;10.27;;;8.10;99.90;;;5.95;100.00;98313.34;10482380;28;20473;-80
2022/11/18 12:57:42;;;;;;;26.33;10.60;;;8.10;99.90;;;5.96;100.00;98320.25;10471457;28;20057;-79
2022/11/18 13:03:00;;;;;;;25.27;10.53;;;8.10;99.90;;;6.00;100.00;98318.88;10481682;28;20069;-80
2022/11/18 13:08:16;;;;;;;21.57;9.67;;;8.10;99.90;;;6.06;100.00;98323.41;10483090;28;20053;-79
2022/11/18 13:13:31;;;;;;;23.07;10.03;;;8.20;99.90;;;6.10;100.00;98337.03;10505547;28;20053;-79
2022/11/18 13:18:48;;;;;;;22.23;9.57;;;8.20;99.90;;;6.14;100.00;98344.41;10458198;28;20107;-79
2022/11/18 13:23:59;;;;;;;22.43;8.03;;;8.30;99.90;;;6.16;100.00;98347.66;10489551;28;20061;-79
2022/11/18 13:29:31;;;;;;;21.90;9.97;;;8.30;99.90;;;6.23;100.00;98357.47;10476445;28;20058;-79
2022/11/18 13:34:47;;;;;;;23.58;10.73;;;8.30;99.90;;;6.23;100.00;98347.72;10498029;28;20060;-79
2022/11/18 13:39:51;;;;;;;18.97;9.53;;;8.40;99.90;;;6.24;100.00;98351.19;10507142;28;20135;-80
2022/11/18 13:44:57;;;;;;;20.17;9.93;;;8.40;99.90;;;6.23;100.00;98360.09;10483823;28;20064;-80
2022/11/18 13:50:09;;;;;;;25.87;11.77;;;8.40;99.90;;;6.23;100.00;98362.75;10516366;28;20112;-79
2022/11/18 13:55:32;;;;;;;18.03;8.33;;;8.40;99.90;;;6.20;100.00;98350.75;10482146;28;20496;-80
2022/11/18 14:00:35;;;;;;;22.63;11.27;;;8.40;99.90;;;6.20;100.00;98348.13;10513675;28;20065;-80
2022/11/18 14:05:40;;;;;;;27.67;12.33;;;8.40;99.90;;;6.18;100.00;98344.84;10475478;28;20449;-85
2022/11/18 14:10:43;;;;;;;30.57;14.57;;;8.40;99.90;;;6.21;100.00;98348.94;10477226;28;20069;-84
2022/11/18 14:15:46;;;;;;;24.10;12.20;;;8.40;99.90;;;6.22;100.00;98346.09;10495337;28;20417;-79
2022/11/18 14:20:52;;;;;;;24.97;11.00;;;8.40;99.90;;;6.21;100.00;98347.13;10514853;28;20053;-79
2022/11/18 14:25:57;;;;;;;23.47;10.50;;;8.40;99.90;;;6.22;100.00;98361.13;10444678;28;20465;-79
2022/11/18 14:31:24;;;;;;;24.83;12.17;;;8.40;99.90;;;6.22;100.00;98358.47;10451560;28;20491;-79
2022/11/18 14:36:28;;;;;;;28.77;11.40;;;8.40;99.90;;;6.22;100.00;98361.94;10498582;28;20092;-78
2022/11/18 14:41:46;;;;;;;32.63;11.77;;;8.40;99.90;;;6.24;100.00;98367.00;10482698;28;20068;-79
2022/11/18 14:47:07;;;;;;;35.10;16.50;;;8.40;99.90;;;6.25;100.00;98366.84;10498608;28;20056;-79
2022/11/18 14:52:10;;;;;;;20.90;10.88;;;8.40;99.90;;;6.28;100.00;98355.09;10504168;28;20148;-79
2022/11/18 14:57:16;;;;;;;22.37;11.13;;;8.50;99.90;;;6.29;100.00;98351.44;10515646;28;20579;-79
2022/11/18 15:02:19;;;;;;;26.57;12.73;;;8.50;99.90;;;6.29;100.00;98346.19;10521618;28;20420;-79
2022/11/18 15:07:22;;;;;;;37.77;14.40;;;8.50;99.90;;;6.29;100.00;98354.09;10506381;28;20053;-79
2022/11/18 15:12:26;;;;;;;34.23;12.97;;;8.50;99.90;;;6.28;100.00;98355.09;10487081;28;20057;-79
2022/11/18 15:17:29;;;;;;;23.87;12.20;;;8.50;99.90;;;6.26;100.00;98352.66;10485964;28;20060;-79
2022/11/18 15:22:33;;;;;;;24.80;11.90;;;8.50;99.90;;;6.24;100.00;98341.47;10472609;28;20068;-81
2022/11/18 15:27:36;;;;;;;33.37;14.67;;;8.50;99.90;;;6.27;100.00;98337.63;10489814;28;20567;-80
2022/11/18 15:32:40;;;;;;;28.73;12.80;;;8.50;99.90;;;6.27;100.00;98345.56;10475450;28;20061;-80
2022/11/18 15:37:43;;;;;;;28.67;11.40;;;8.50;99.90;;;6.27;100.00;98356.09;10474114;28;20534;-80
2022/11/18 15:42:46;;;;;;;36.03;13.97;;;8.50;99.90;;;6.28;100.00;98355.09;10498135;28;20064;-80
2022/11/18 15:47:54;;;;;;;63.83;27.03;;;8.50;99.90;;;6.28;100.00;98363.00;10478859;28;20067;-80
2022/11/18 15:52:57;;;;;;;97.27;38.10;;;8.50;99.90;;;6.27;100.00;98371.94;10526658;28;20067;-81
2022/11/18 15:58:00;;;;;;;41.47;19.90;;;8.50;99.90;;;6.27;100.00;98374.56;10489437;28;20469;-80
2022/11/18 16:03:03;;;;;;;40.47;23.73;;;8.50;99.90;;;6.27;100.00;98375.38;10501683;28;20077;-80
2022/11/18 16:08:05;;;;;;;38.73;16.33;;;8.50;99.90;;;6.30;100.00;98379.50;10502852;28;20061;-80
2022/11/18 16:13:08;;;;;;;30.23;14.37;;;8.50;99.90;;;6.31;100.00;98381.13;10489075;28;20056;-80
2022/11/18 16:18:11;;;;;;;38.63;16.40;;;8.50;99.90;;;6.31;100.00;98381.13;10485650;28;20145;-80
2022/11/18 16:23:14;;;;;;;35.53;16.03;;;8.50;99.90;;;6.32;100.00;98373.00;10495981;28;20061;-80
2022/11/18 16:28:17;;;;;;;35.77;14.80;;;8.50;99.90;;;6.32;100.00;98380.13;10512084;28;20080;-80
2022/11/18 16:33:20;;;;;;;37.43;16.17;;;8.50;99.90;;;6.32;100.00;98385.38;10499435;28;20519;-80
2022/11/18 16:38:24;;;;;;;37.97;17.33;;;8.50;99.90;;;6.32;100.00;98378.28;10502082;28;20092;-80
2022/11/18 16:43:26;;;;;;;39.93;17.00;;;8.50;99.90;;;6.31;100.00;98375.84;10497371;28;20059;-80
2022/11/18 16:48:29;;;;;;;41.63;15.47;;;8.50;99.90;;;6.30;100.00;98380.31;10482571;28;20060;-81
2022/11/18 16:53:32;;;;;;;44.97;17.40;;;8.50;99.90;;;6.31;100.00;98387.22;10489118;28;20083;-80
2022/11/18 16:58:35;;;;;;;59.93;24.73;;;8.50;99.90;;;6.32;100.00;98395.94;10501421;28;20088;-81
2022/11/18 17:03:39;;;;;;;48.53;18.73;;;8.50;99.90;;;6.28;100.00;98397.31;10532635;28;20350;-81
2022/11/18 17:08:42;;;;;;;56.27;21.77;;;8.50;99.90;;;6.29;100.00;98405.03;10480332;28;20092;-80
2022/11/18 17:13:44;;;;;;;35.97;16.73;;;8.50;99.90;;;6.30;100.00;98400.59;10500142;28;20069;-80
2022/11/18 17:18:54;;;;;;;44.10;17.10;;;8.50;99.90;;;6.30;100.00;98404.06;10483051;28;20459;-81
2022/11/18 17:23:57;;;;;;;33.80;14.90;;;8.50;99.90;;;6.31;100.00;98408.31;10479758;28;20057;-81
2022/11/18 17:29:00;;;;;;;63.47;24.10;;;8.50;99.90;;;6.33;100.00;98406.31;10494522;28;20053;-83
2022/11/18 17:34:04;;;;;;;44.23;19.00;;;8.60;99.90;;;6.34;100.00;98412.41;10483157;28;20064;-81
2022/11/18 17:39:10;;;;;;;39.10;16.90;;;8.60;99.90;;;6.34;100.00;98418.50;10483159;28;20061;-81
2022/11/18 17:44:16;;;;;;;44.40;17.30;;;8.60;99.90;;;6.36;100.00;98423.59;10510810;28;20103;-80
2022/11/18 17:49:22;;;;;;;45.73;19.27;;;8.60;99.90;;;6.38;100.00;98434.78;10494375;27;20068;-81
2022/11/18 17:54:28;;;;;;;46.03;19.63;;;8.60;99.90;;;6.39;100.00;98434.59;10498836;28;20059;-81
2022/11/18 17:59:31;;;;;;;66.90;24.47;;;8.60;99.90;;;6.39;100.00;98431.13;10517295;28;20130;-81
2022/11/18 18:04:34;;;;;;;70.17;27.00;;;8.60;99.90;;;6.42;100.00;98442.16;10462006;28;20059;-81
2022/11/18 18:09:37;;;;;;;54.73;21.53;;;8.70;99.90;;;6.44;100.00;98445.41;10524910;28;20057;-81
2022/11/18 18:14:40;;;;;;;54.87;22.37;;;8.70;99.90;;;6.42;100.00;98444.78;10516633;28;20115;-81
2022/11/18 18:19:45;;;;;;;62.10;26.63;;;8.70;99.90;;;6.43;100.00;98450.88;10515312;28;20076;-80
2022/11/18 18:24:48;;;;;;;36.87;16.43;;;8.70;99.90;;;6.47;100.00;98453.94;10495393;28;20065;-81
2022/11/18 18:29:51;;;;;;;65.67;25.30;;;8.70;99.90;;;6.48;100.00;98456.44;10482931;28;20065;-80
2022/11/18 18:34:54;;;;;;;61.50;27.70;;;8.70;99.90;;;6.49;100.00;98463.34;10489024;28;20111;-83
2022/11/18 18:39:57;;;;;;;36.43;18.00;;;8.70;99.90;;;6.47;100.00;98475.06;10504490;28;20073;-83
2022/11/18 18:50:21;;;;;;;69.57;33.00;;;8.70;99.90;;;6.50;100.00;98485.25;10482124;28;20061;-83
2022/11/18 18:55:31;;;;;;;80.87;35.93;;;8.70;99.90;;;6.48;100.00;98490.72;10521380;28;20057;-86
2022/11/18 19:00:34;;;;;;;41.63;19.33;;;8.70;99.90;;;6.48;100.00;98493.38;10454873;28;20122;-84
2022/11/18 19:05:37;;;;;;;34.23;14.47;;;8.70;99.90;;;6.46;100.00;98500.63;10511277;28;20123;-85
2022/11/18 19:11:05;;;;;;;27.20;10.93;;;8.70;99.90;;;6.41;100.00;98511.72;10502098;28;20064;-85
2022/11/18 19:16:08;;;;;;;30.43;12.17;;;8.60;99.90;;;6.39;100.00;98515.56;10470955;28;20467;-85
2022/11/18 19:21:11;;;;;;;25.93;11.27;;;8.60;99.90;;;6.35;100.00;98524.81;10481333;28;20322;-85
2022/11/18 19:26:14;;;;;;;22.97;9.87;;;8.50;99.90;;;6.31;100.00;98528.84;10499131;28;20061;-84
2022/11/18 19:31:19;;;;;;;21.77;9.00;;;8.50;99.90;;;6.27;100.00;98544.22;10447604;28;20060;-85
2022/11/18 19:36:21;;;;;;;22.10;8.67;;;8.40;99.90;;;6.23;100.00;98542.91;10533873;28;20068;-84
2022/11/18 19:41:24;;;;;;;23.70;8.87;;;8.40;99.90;;;6.21;100.00;98558.13;10520553;28;20069;-84
2022/11/18 19:46:27;;;;;;;21.30;8.63;;;8.40;99.90;;;6.16;100.00;98561.28;10484252;28;20087;-84
2022/11/18 19:51:35;;;;;;;21.67;9.20;;;8.30;99.90;;;6.14;100.00;98560.66;10491905;28;20508;-85
2022/11/18 19:56:38;;;;;;;19.63;9.47;;;8.30;99.90;;;6.13;100.00;98574.84;10515733;28;20049;-86
2022/11/18 20:01:42;;;;;;;19.43;9.60;;;8.30;99.90;;;6.09;100.00;98592.03;10474983;28;20555;-86
2022/11/18 20:06:45;;;;;;;18.80;9.10;;;8.20;99.90;;;6.03;100.00;98598.00;10496416;28;20057;-85
2022/11/18 20:11:48;;;;;;;39.03;17.63;;;8.20;99.90;;;5.99;100.00;98615.16;10443426;28;20417;-84
2022/11/18 20:16:51;;;;;;;18.10;8.60;;;8.10;99.90;;;5.91;100.00;98620.50;10481798;28;20056;-87
2022/11/18 20:21:54;;;;;;;17.17;9.17;;;8.10;99.90;;;5.85;100.00;98626.47;10496735;28;20061;-86
2022/11/18 20:26:57;;;;;;;15.57;7.13;;;8.00;99.90;;;5.78;100.00;98643.97;10487240;28;20061;-85
2022/11/18 20:32:00;;;;;;;14.53;7.63;;;7.90;99.90;;;5.73;100.00;98652.41;10490700;28;20513;-86
2022/11/18 20:37:03;;;;;;;13.03;6.37;;;7.80;99.90;;;5.61;100.00;98672.25;10510163;28;20060;-87
2022/11/18 20:47:28;;;;;;;13.60;7.60;;;7.70;99.90;;;5.45;100.00;98670.50;10472368;28;20068;-85
2022/11/18 20:52:33;;;;;;;15.23;7.23;;;7.60;99.90;;;5.42;100.00;98676.13;10509077;28;20555;-84
2022/11/18 20:57:36;;;;;;;15.73;8.90;;;7.60;99.90;;;5.34;100.00;98690.16;10509089;28;20057;-86
2022/11/18 21:02:39;;;;;;;9.67;6.20;;;7.60;99.90;;;5.26;100.00;98697.25;10450680;28;20061;-84
2022/11/18 21:07:42;;;;;;;9.90;6.13;;;7.50;99.90;;;5.07;100.00;98714.28;10531330;28;20500;-84
2022/11/18 21:18:07;;;;;;;13.57;8.45;;;7.10;99.90;;;4.50;100.00;98744.16;10495790;28;20061;-81
2022/11/18 21:23:10;;;;;;;10.37;7.13;;;6.80;99.90;;;4.20;100.00;98748.22;10502328;28;20092;-82
2022/11/18 21:28:13;;;;;;;9.83;7.00;;;6.50;99.90;;;4.03;100.00;98762.34;10490337;28;20065;-81
2022/11/18 21:33:16;;;;;;;12.50;7.37;;;6.30;99.90;;;3.92;100.00;98773.97;10482406;28;20060;-82
2022/11/18 21:38:19;;;;;;;12.37;6.63;;;6.20;99.90;;;3.84;100.00;98783.59;10518603;28;20527;-81
2022/11/18 21:43:22;;;;;;;12.73;7.40;;;6.10;99.90;;;3.78;100.00;98779.00;10483645;28;20119;-81
2022/11/18 21:48:45;;;;;;;13.63;7.67;;;6.00;99.90;;;3.72;100.00;98793.63;10514893;28;20127;-82
2022/11/18 21:53:48;;;;;;;12.53;7.83;;;5.90;99.90;;;3.66;100.00;98796.88;10510935;28;20068;-81
2022/11/18 21:58:51;;;;;;;13.73;8.13;;;5.80;99.90;;;3.59;100.00;98803.72;10469400;28;20057;-82